Time;durP1;ratioP1;P1;durP2;ratioP2;P2;SDS_P1;SDS_P2;PMS_P1;PMS_P2;Temp;Humidity;BMP_temperature;BMP_pressure;BME280_temperature;BME280_humidity;BME280_pressure;Samples;Min_cycle;Max_cycle;Signal;HPM_P1;HPM_P2
2023/12/01 00:00:16;;;;;;;27.63;17.50;;;-0.30;99.90;;;;;;5069033;28;20520;-84
2023/12/01 00:02:43;;;;;;;33.00;17.43;;;-0.30;99.90;;;;;;5064105;28;20464;-83
2023/12/01 00:05:10;;;;;;;33.63;19.17;;;-0.30;99.90;;;;;;5063886;28;20911;-83
2023/12/01 00:07:38;;;;;;;36.13;19.63;;;-0.30;99.90;;;;;;5066577;28;20530;-84
2023/12/01 00:10:09;;;;;;;35.37;18.80;;;-0.30;99.90;;;;;;5067955;28;20948;-84
2023/12/01 00:12:36;;;;;;;35.17;21.00;;;-0.30;99.90;;;;;;5058402;28;20491;-84
2023/12/01 00:15:04;;;;;;;29.33;17.67;;;-0.30;99.90;;;;;;5067966;28;20836;-84
2023/12/01 00:17:30;;;;;;;27.27;16.77;;;-0.30;99.90;;;;;;5056211;28;20459;-83
2023/12/01 00:19:57;;;;;;;30.83;19.87;;;-0.20;99.90;;;;;;5063478;28;20483;-83
2023/12/01 00:22:24;;;;;;;34.10;17.77;;;-0.20;99.90;;;;;;5068608;28;20483;-83
2023/12/01 00:24:53;;;;;;;31.90;17.97;;;-0.30;99.90;;;;;;5066512;28;20464;-83
2023/12/01 00:27:20;;;;;;;35.23;22.40;;;-0.40;99.90;;;;;;5065156;28;20456;-83
2023/12/01 00:29:47;;;;;;;32.83;18.70;;;-0.40;99.90;;;;;;5056707;28;20974;-84
2023/12/01 00:32:14;;;;;;;30.20;20.00;;;-0.40;99.90;;;;;;5062584;28;20926;-83
2023/12/01 00:34:41;;;;;;;42.27;20.77;;;-0.30;99.90;;;;;;5068275;28;20446;-83
2023/12/01 00:37:08;;;;;;;31.90;17.50;;;-0.40;99.90;;;;;;5066993;28;20985;-84
2023/12/01 00:39:35;;;;;;;33.70;19.70;;;-0.40;99.90;;;;;;5068257;28;20567;-83
2023/12/01 00:42:04;;;;;;;33.13;20.17;;;-0.40;99.90;;;;;;5060427;28;20459;-84
2023/12/01 00:44:31;;;;;;;37.27;18.90;;;-0.30;99.90;;;;;;5066369;28;20444;-83
2023/12/01 00:46:58;;;;;;;30.77;19.07;;;-0.30;99.90;;;;;;5066717;28;21118;-83
2023/12/01 00:49:25;;;;;;;36.97;18.87;;;-0.20;99.90;;;;;;5067320;28;20505;-83
2023/12/01 00:51:52;;;;;;;30.67;18.57;;;-0.20;99.90;;;;;;5062644;28;20466;-83
2023/12/01 00:54:19;;;;;;;32.43;19.10;;;-0.20;99.90;;;;;;5063666;28;20514;-84
2023/12/01 00:56:46;;;;;;;38.00;20.90;;;-0.20;99.90;;;;;;5065058;28;20517;-83
2023/12/01 00:59:14;;;;;;;32.97;18.67;;;-0.30;99.90;;;;;;5064209;28;20545;-83
2023/12/01 01:01:41;;;;;;;34.00;20.47;;;-0.20;99.90;;;;;;5063922;28;20436;-83
2023/12/01 01:04:08;;;;;;;31.63;18.87;;;-0.30;99.90;;;;;;5064900;28;20463;-83
2023/12/01 01:06:35;;;;;;;29.10;18.20;;;-0.20;99.90;;;;;;5062564;28;20532;-83
2023/12/01 01:09:02;;;;;;;30.10;19.20;;;-0.20;99.90;;;;;;5067442;28;20930;-84
2023/12/01 01:11:29;;;;;;;38.40;19.90;;;-0.10;99.90;;;;;;5067091;28;20506;-83
2023/12/01 01:13:59;;;;;;;28.87;19.53;;;-0.10;99.90;;;;;;5066777;28;20498;-84
2023/12/01 01:16:27;;;;;;;32.53;18.40;;;-0.20;99.90;;;;;;5059700;28;20946;-84
2023/12/01 01:18:54;;;;;;;38.13;21.60;;;-0.30;99.90;;;;;;5052140;28;20534;-84
2023/12/01 01:21:21;;;;;;;32.97;18.27;;;-0.30;99.90;;;;;;5067628;28;20540;-81
2023/12/01 01:23:48;;;;;;;30.97;19.00;;;-0.30;99.90;;;;;;5066674;28;20458;-81
2023/12/01 01:26:15;;;;;;;30.30;19.03;;;-0.30;99.90;;;;;;5064495;28;20517;-81
2023/12/01 01:28:42;;;;;;;40.40;21.37;;;-0.30;99.90;;;;;;5060299;28;20859;-81
2023/12/01 01:31:09;;;;;;;35.30;20.30;;;-0.40;99.90;;;;;;5065717;28;20458;-81
2023/12/01 01:33:37;;;;;;;31.40;19.57;;;-0.50;99.90;;;;;;5067865;28;20455;-81
2023/12/01 01:36:05;;;;;;;35.40;19.27;;;-0.40;99.90;;;;;;5057300;28;20459;-81
2023/12/01 01:38:32;;;;;;;41.83;22.37;;;-0.40;99.90;;;;;;5067963;28;20507;-81
2023/12/01 01:40:59;;;;;;;36.90;19.87;;;-0.30;99.90;;;;;;5066415;28;20484;-81
2023/12/01 01:43:26;;;;;;;36.20;20.53;;;-0.30;99.90;;;;;;5063704;28;20463;-81
2023/12/01 01:46:02;;;;;;;35.23;21.67;;;-0.40;99.90;;;;;;5065746;28;20521;-82
2023/12/01 01:48:30;;;;;;;35.97;21.53;;;-0.40;99.90;;;;;;5066054;28;20488;-82
2023/12/01 01:50:58;;;;;;;40.43;19.33;;;-0.40;99.90;;;;;;5066024;28;20455;-81
2023/12/01 01:53:26;;;;;;;43.60;21.60;;;-0.30;99.90;;;;;;5054103;28;21210;-81
2023/12/01 01:55:53;;;;;;;40.50;21.23;;;-0.40;99.90;;;;;;5063872;28;20528;-81
2023/12/01 01:58:20;;;;;;;43.77;22.77;;;-0.40;99.90;;;;;;5066155;28;20523;-81
2023/12/01 02:00:50;;;;;;;35.20;19.63;;;-0.40;99.90;;;;;;5066022;28;20533;-81
2023/12/01 02:03:18;;;;;;;31.80;18.13;;;-0.40;99.90;;;;;;5066058;28;20467;-81
2023/12/01 02:05:47;;;;;;;38.83;20.43;;;-0.40;99.90;;;;;;5056921;28;20456;-81
2023/12/01 02:08:26;;;;;;;35.37;19.00;;;-0.40;99.90;;;;;;5066711;28;20573;-80
2023/12/01 02:10:53;;;;;;;30.20;18.07;;;-0.40;99.90;;;;;;5064446;28;20525;-82
2023/12/01 02:13:21;;;;;;;32.57;19.73;;;-0.50;99.90;;;;;;5066665;28;20469;-81
2023/12/01 02:15:48;;;;;;;33.67;19.87;;;-0.40;99.90;;;;;;5057665;28;20961;-81
2023/12/01 02:18:22;;;;;;;36.37;19.60;;;-0.40;99.90;;;;;;5060573;28;21056;-81
2023/12/01 02:20:50;;;;;;;29.58;17.98;;;-0.40;99.90;;;;;;5066545;28;20493;-81
2023/12/01 02:23:18;;;;;;;36.67;19.90;;;-0.50;99.90;;;;;;5065919;28;20205;-81
2023/12/01 02:25:45;;;;;;;38.83;20.77;;;-0.50;99.90;;;;;;5065669;28;20879;-82
2023/12/01 02:28:13;;;;;;;41.00;21.87;;;-0.50;99.90;;;;;;5063936;28;20463;-81
2023/12/01 02:30:42;;;;;;;39.27;19.13;;;-0.40;99.90;;;;;;5066507;28;20798;-81
2023/12/01 02:33:14;;;;;;;34.20;20.70;;;-0.40;99.90;;;;;;5066489;28;20451;-81
2023/12/01 02:35:44;;;;;;;36.60;21.20;;;-0.40;99.90;;;;;;5063878;28;21136;-83
2023/12/01 02:38:11;;;;;;;32.40;17.90;;;-0.40;99.90;;;;;;5062690;28;20558;-82
2023/12/01 02:40:42;;;;;;;39.30;22.40;;;-0.30;99.90;;;;;;5060255;28;21095;-82
2023/12/01 02:45:52;;;;;;;38.40;20.50;;;-0.40;99.90;;;;;;5100689;27;20556;-81
2023/12/01 02:48:19;;;;;;;36.97;21.00;;;-0.50;99.90;;;;;;5065949;28;20475;-80
2023/12/01 02:50:46;;;;;;;38.33;22.30;;;-0.50;99.90;;;;;;5064092;28;20448;-79
2023/12/01 02:53:15;;;;;;;34.03;21.63;;;-0.40;99.90;;;;;;5080855;28;20457;-80
2023/12/01 02:55:42;;;;;;;42.67;22.70;;;-0.40;99.90;;;;;;5079763;28;20265;-80
2023/12/01 02:58:09;;;;;;;36.67;21.20;;;-0.50;99.90;;;;;;5067850;28;20466;-80
2023/12/01 03:00:36;;;;;;;35.63;21.93;;;-0.40;99.90;;;;;;5075446;28;20810;-80
2023/12/01 03:03:04;;;;;;;40.40;22.25;;;-0.50;99.90;;;;;;5065856;28;20528;-80
2023/12/01 03:05:31;;;;;;;37.43;22.50;;;-0.50;99.90;;;;;;5075071;28;20284;-80
2023/12/01 03:07:58;;;;;;;42.63;20.93;;;-0.50;99.90;;;;;;5074331;28;20542;-80
2023/12/01 03:10:25;;;;;;;32.70;19.90;;;-0.50;99.90;;;;;;5072610;28;20463;-80
2023/12/01 03:12:52;;;;;;;43.57;23.60;;;-0.40;99.90;;;;;;5074809;28;20863;-80
2023/12/01 03:15:19;;;;;;;46.67;22.47;;;-0.30;99.90;;;;;;5078824;28;20797;-80
2023/12/01 03:17:47;;;;;;;44.40;21.53;;;-0.40;99.90;;;;;;5069939;28;20920;-80
2023/12/01 03:20:16;;;;;;;40.03;23.73;;;-0.50;99.90;;;;;;5076663;28;20462;-81
2023/12/01 03:22:44;;;;;;;48.03;23.80;;;-0.50;99.90;;;;;;5070822;28;20458;-81
2023/12/01 03:25:11;;;;;;;46.08;22.38;;;-0.50;99.90;;;;;;5075274;28;20498;-80
2023/12/01 03:27:40;;;;;;;45.00;23.03;;;-0.50;99.90;;;;;;5074014;28;20295;-80
2023/12/01 03:30:13;;;;;;;47.37;25.13;;;-0.50;99.90;;;;;;5075295;28;20540;-80
2023/12/01 03:32:44;;;;;;;38.33;20.67;;;-0.50;99.90;;;;;;5078661;28;20991;-80
2023/12/01 03:35:12;;;;;;;42.87;22.70;;;-0.40;99.90;;;;;;5078098;28;20472;-80
2023/12/01 03:37:40;;;;;;;42.50;20.85;;;-0.40;99.90;;;;;;5059972;28;20561;-80
2023/12/01 03:40:09;;;;;;;41.80;21.00;;;-0.40;99.90;;;;;;5073708;28;20593;-81
2023/12/01 03:42:38;;;;;;;41.97;23.40;;;-0.50;99.90;;;;;;5079709;28;20474;-80
2023/12/01 03:45:07;;;;;;;37.07;20.67;;;-0.50;99.90;;;;;;5077248;28;20547;-80
2023/12/01 03:47:34;;;;;;;37.20;20.83;;;-0.50;99.90;;;;;;5064281;28;20466;-80
2023/12/01 03:50:02;;;;;;;42.77;22.47;;;-0.50;99.90;;;;;;5058836;28;20443;-80
2023/12/01 03:52:29;;;;;;;38.88;24.13;;;-0.50;99.90;;;;;;5077460;28;20522;-80
2023/12/01 03:54:58;;;;;;;45.33;24.20;;;-0.60;99.90;;;;;;5072764;28;20204;-80
2023/12/01 03:57:27;;;;;;;43.60;21.83;;;-0.50;99.90;;;;;;5063843;28;20506;-80
2023/12/01 03:59:54;;;;;;;41.17;22.20;;;-0.40;99.90;;;;;;5066838;28;20463;-80
2023/12/01 04:02:22;;;;;;;48.00;26.90;;;-0.40;99.90;;;;;;5065114;28;20540;-80
2023/12/01 04:04:49;;;;;;;41.83;23.77;;;-0.40;99.90;;;;;;5058989;28;20992;-80
2023/12/01 04:07:15;;;;;;;44.10;22.77;;;-0.50;99.90;;;;;;5055899;28;20848;-80
2023/12/01 04:09:42;;;;;;;40.80;21.40;;;-0.40;99.90;;;;;;5066144;28;20455;-80
2023/12/01 04:12:10;;;;;;;45.80;23.80;;;-0.30;99.90;;;;;;5061457;28;20451;-80
2023/12/01 04:14:37;;;;;;;40.60;23.23;;;-0.40;99.90;;;;;;5064718;28;20545;-80
2023/12/01 04:17:10;;;;;;;46.75;24.02;;;-0.40;99.90;;;;;;5056751;28;20503;-80
2023/12/01 04:19:38;;;;;;;40.57;24.40;;;-0.30;99.90;;;;;;5049969;28;20204;-80
2023/12/01 04:22:06;;;;;;;44.80;22.60;;;-0.30;99.90;;;;;;5060277;28;20472;-80
2023/12/01 04:24:33;;;;;;;43.60;22.20;;;-0.50;99.90;;;;;;5059489;28;20795;-80
2023/12/01 04:27:01;;;;;;;41.38;23.40;;;-0.40;99.90;;;;;;5065490;28;20454;-80
2023/12/01 04:29:30;;;;;;;47.93;23.93;;;-0.50;99.90;;;;;;5059460;28;20587;-80
2023/12/01 04:31:57;;;;;;;48.47;24.03;;;-0.40;99.90;;;;;;5060169;28;20463;-80
2023/12/01 04:34:26;;;;;;;46.00;25.40;;;-0.40;99.90;;;;;;5061233;28;20568;-80
2023/12/01 04:36:54;;;;;;;46.03;25.90;;;-0.40;99.90;;;;;;5065036;28;20973;-80
2023/12/01 04:39:21;;;;;;;36.20;21.47;;;-0.30;99.90;;;;;;5063384;28;20459;-80
2023/12/01 04:41:50;;;;;;;52.93;27.13;;;-0.40;99.90;;;;;;5064203;28;20843;-80
2023/12/01 04:44:17;;;;;;;45.17;24.23;;;-0.40;99.90;;;;;;5048003;28;20538;-80
2023/12/01 04:46:45;;;;;;;40.67;23.00;;;-0.30;99.90;;;;;;5065977;28;20638;-80
2023/12/01 04:49:12;;;;;;;46.33;24.33;;;-0.30;99.90;;;;;;5052072;28;20575;-83
2023/12/01 04:51:39;;;;;;;39.63;22.20;;;-0.30;99.90;;;;;;5056298;28;20459;-80
2023/12/01 04:54:06;;;;;;;44.80;24.20;;;-0.30;99.90;;;;;;5059398;28;20452;-80
2023/12/01 04:56:33;;;;;;;43.50;21.43;;;-0.30;99.90;;;;;;5058328;28;20547;-83
2023/12/01 04:59:02;;;;;;;44.67;22.37;;;-0.30;99.90;;;;;;5058475;28;20538;-82
2023/12/01 05:01:30;;;;;;;40.17;22.53;;;-0.30;99.90;;;;;;5050639;28;20452;-82
2023/12/01 05:03:58;;;;;;;50.55;25.48;;;-0.30;99.90;;;;;;5058981;28;20543;-82
2023/12/01 05:06:25;;;;;;;45.10;24.20;;;-0.30;99.90;;;;;;5055366;28;20707;-82
2023/12/01 05:08:52;;;;;;;43.80;23.37;;;-0.20;99.90;;;;;;5058362;28;20473;-82
2023/12/01 05:11:18;;;;;;;43.53;22.57;;;-0.20;99.90;;;;;;5054094;28;20910;-82
2023/12/01 05:13:45;;;;;;;39.67;22.30;;;-0.20;99.90;;;;;;5060878;28;20509;-82
2023/12/01 05:16:13;;;;;;;47.87;26.00;;;-0.10;99.90;;;;;;5050626;28;20939;-82
2023/12/01 05:18:39;;;;;;;45.37;23.00;;;-0.20;99.90;;;;;;5057372;28;20851;-82
2023/12/01 05:21:09;;;;;;;48.10;23.27;;;-0.10;99.90;;;;;;5060705;28;20464;-82
2023/12/01 05:23:36;;;;;;;41.17;22.90;;;-0.10;99.90;;;;;;5060506;28;20526;-82
2023/12/01 05:26:04;;;;;;;43.27;22.60;;;0.00;99.90;;;;;;5058288;28;20483;-82
2023/12/01 05:28:31;;;;;;;39.37;22.27;;;0.00;99.90;;;;;;5061187;28;20550;-82
2023/12/01 05:30:58;;;;;;;40.73;21.60;;;0.00;99.90;;;;;;5064151;28;20452;-82
2023/12/01 05:33:25;;;;;;;39.67;21.90;;;0.10;99.90;;;;;;5063746;28;20966;-82
2023/12/01 05:35:52;;;;;;;36.57;21.30;;;0.00;99.90;;;;;;5062836;28;20554;-82
2023/12/01 05:38:20;;;;;;;42.90;22.97;;;-0.10;99.90;;;;;;5061104;28;20560;-82
2023/12/01 05:40:47;;;;;;;42.63;22.83;;;-0.10;99.90;;;;;;5055805;28;20471;-83
2023/12/01 05:43:16;;;;;;;46.03;23.20;;;0.00;99.90;;;;;;5058117;28;20559;-83
2023/12/01 05:45:43;;;;;;;30.20;20.80;;;0.00;99.90;;;;;;5061877;28;20529;-83
2023/12/01 05:48:10;;;;;;;48.00;23.87;;;0.00;99.90;;;;;;5062237;28;20458;-83
2023/12/01 05:50:37;;;;;;;45.90;23.23;;;0.00;99.90;;;;;;5055687;28;20444;-83
2023/12/01 05:53:06;;;;;;;44.00;23.87;;;0.00;99.90;;;;;;5057922;28;21054;-83
2023/12/01 05:55:35;;;;;;;39.87;21.20;;;0.00;99.90;;;;;;5058119;28;20519;-83
2023/12/01 05:58:05;;;;;;;40.43;21.23;;;0.00;99.90;;;;;;5061066;28;20547;-83
2023/12/01 06:00:33;;;;;;;46.83;24.03;;;0.00;99.90;;;;;;5056263;28;20881;-83
2023/12/01 06:03:06;;;;;;;45.70;23.13;;;0.00;99.90;;;;;;5063907;28;20492;-83
2023/12/01 06:05:33;;;;;;;33.33;21.00;;;0.00;99.90;;;;;;5062226;28;20562;-83
2023/12/01 06:08:02;;;;;;;41.37;23.40;;;0.00;99.90;;;;;;5060749;28;20462;-83
2023/12/01 06:10:32;;;;;;;40.60;21.80;;;0.00;99.90;;;;;;5054718;28;20470;-83
2023/12/01 06:13:00;;;;;;;44.30;22.13;;;0.00;99.90;;;;;;5062625;28;20467;-84
2023/12/01 06:15:30;;;;;;;38.00;21.23;;;0.00;99.90;;;;;;5060022;28;21208;-83
2023/12/01 06:17:58;;;;;;;44.20;24.63;;;0.00;99.90;;;;;;5058512;28;20470;-82
2023/12/01 06:20:25;;;;;;;39.60;21.97;;;0.00;99.90;;;;;;5055647;28;20554;-83
2023/12/01 06:22:53;;;;;;;37.17;20.50;;;0.00;99.90;;;;;;5060337;28;20455;-83
2023/12/01 06:25:26;;;;;;;40.77;22.33;;;0.00;99.90;;;;;;5059722;28;20515;-82
2023/12/01 06:27:56;;;;;;;35.50;20.90;;;0.00;99.90;;;;;;5060680;28;20469;-80
2023/12/01 06:30:25;;;;;;;42.10;25.33;;;0.00;99.90;;;;;;5054073;28;20873;-80
2023/12/01 06:32:52;;;;;;;35.40;21.38;;;0.00;99.90;;;;;;5061381;28;20923;-80
2023/12/01 06:35:21;;;;;;;44.33;21.57;;;0.10;99.90;;;;;;5059408;28;20287;-80
2023/12/01 06:37:48;;;;;;;37.93;21.00;;;0.20;99.90;;;;;;5053059;28;20517;-80
2023/12/01 06:40:16;;;;;;;38.27;23.13;;;0.10;99.90;;;;;;5059609;28;20592;-80
2023/12/01 06:42:45;;;;;;;40.93;23.43;;;0.10;99.90;;;;;;5059112;28;20505;-80
2023/12/01 06:45:13;;;;;;;36.93;21.37;;;0.10;99.90;;;;;;5057244;28;20553;-79
2023/12/01 06:47:42;;;;;;;34.57;20.70;;;0.00;99.90;;;;;;5056694;28;20478;-80
2023/12/01 06:50:14;;;;;;;40.67;21.37;;;0.10;99.90;;;;;;5060110;28;20452;-80
2023/12/01 06:52:42;;;;;;;47.03;24.90;;;0.10;99.90;;;;;;5054933;28;20460;-81
2023/12/01 06:55:10;;;;;;;31.27;19.17;;;0.10;99.90;;;;;;5062019;28;21147;-80
2023/12/01 06:57:38;;;;;;;41.03;22.10;;;0.10;99.90;;;;;;5055658;28;20463;-81
2023/12/01 07:00:08;;;;;;;31.70;18.73;;;0.10;99.90;;;;;;5059979;28;20527;-83
2023/12/01 07:02:37;;;;;;;32.10;20.60;;;0.20;99.90;;;;;;5050719;28;20467;-83
2023/12/01 07:05:07;;;;;;;32.93;20.00;;;0.30;99.90;;;;;;5056108;28;20562;-83
2023/12/01 07:07:37;;;;;;;44.50;23.63;;;0.20;99.90;;;;;;5055496;28;20467;-82
2023/12/01 07:10:06;;;;;;;35.23;21.37;;;0.30;99.90;;;;;;5050487;28;20449;-83
2023/12/01 07:12:33;;;;;;;40.90;23.43;;;0.20;99.90;;;;;;5060663;28;20542;-83
2023/12/01 07:15:00;;;;;;;42.57;22.03;;;0.20;99.90;;;;;;5056143;28;20892;-82
2023/12/01 07:17:27;;;;;;;40.23;22.40;;;0.30;99.90;;;;;;5056701;28;20463;-82
2023/12/01 07:19:53;;;;;;;52.60;29.23;;;0.30;99.90;;;;;;5054797;28;20452;-83
2023/12/01 07:22:22;;;;;;;36.83;22.33;;;0.30;99.90;;;;;;5052970;28;20444;-83
2023/12/01 07:24:49;;;;;;;36.63;19.47;;;0.40;99.90;;;;;;5054607;28;20463;-83
2023/12/01 07:27:16;;;;;;;39.80;21.60;;;0.40;99.90;;;;;;5054142;28;20549;-83
2023/12/01 07:29:43;;;;;;;32.20;20.13;;;0.40;99.90;;;;;;5061773;28;20493;-83
2023/12/01 07:32:10;;;;;;;38.47;24.90;;;0.40;99.90;;;;;;5063330;28;20504;-83
2023/12/01 07:34:37;;;;;;;38.83;20.13;;;0.40;99.90;;;;;;5054596;28;20937;-83
2023/12/01 07:37:10;;;;;;;50.07;24.40;;;0.50;99.90;;;;;;5062907;28;20444;-83
2023/12/01 07:39:38;;;;;;;41.63;23.90;;;0.50;99.90;;;;;;5065179;28;20457;-83
2023/12/01 07:42:07;;;;;;;39.73;21.13;;;0.50;99.90;;;;;;5048192;28;20460;-83
2023/12/01 07:44:35;;;;;;;40.63;23.67;;;0.60;99.90;;;;;;5065237;28;21001;-82
2023/12/01 07:47:04;;;;;;;38.30;22.60;;;0.50;99.90;;;;;;5054652;28;20557;-83
2023/12/01 07:49:31;;;;;;;34.80;21.03;;;0.50;99.90;;;;;;5055570;28;20506;-82
2023/12/01 07:51:58;;;;;;;44.37;24.47;;;0.60;99.90;;;;;;5062703;28;21035;-82
2023/12/01 07:54:26;;;;;;;31.57;19.53;;;0.60;99.90;;;;;;5062488;28;20447;-83
2023/12/01 07:56:54;;;;;;;34.60;22.17;;;0.50;99.90;;;;;;5065207;28;20443;-82
2023/12/01 07:59:21;;;;;;;38.67;21.60;;;0.50;99.90;;;;;;5059149;28;20536;-82
2023/12/01 08:01:48;;;;;;;40.77;21.57;;;0.60;99.90;;;;;;5062881;28;20501;-82
2023/12/01 08:04:15;;;;;;;37.60;20.40;;;0.60;99.90;;;;;;5059914;28;20504;-82
2023/12/01 08:06:42;;;;;;;38.73;19.83;;;0.60;99.90;;;;;;5053202;28;20653;-82
2023/12/01 08:09:16;;;;;;;32.50;18.70;;;0.70;99.90;;;;;;5062038;28;20486;-83
2023/12/01 08:11:43;;;;;;;31.90;20.30;;;0.80;99.90;;;;;;5064535;28;20459;-83
2023/12/01 08:14:12;;;;;;;36.57;20.90;;;0.80;99.90;;;;;;5063334;28;20533;-82
2023/12/01 08:16:39;;;;;;;36.07;21.60;;;0.70;99.90;;;;;;5065680;28;20517;-83
2023/12/01 08:19:09;;;;;;;41.30;26.33;;;0.80;99.90;;;;;;5055561;28;20463;-82
2023/12/01 08:21:36;;;;;;;34.90;21.33;;;0.80;99.90;;;;;;5063283;28;20748;-82
2023/12/01 08:24:04;;;;;;;43.50;24.60;;;0.70;99.90;;;;;;5062702;28;20463;-83
2023/12/01 08:26:31;;;;;;;33.60;20.70;;;0.60;99.90;;;;;;5062976;28;20591;-82
2023/12/01 08:28:58;;;;;;;33.20;19.57;;;0.70;99.90;;;;;;5063527;28;20470;-82
2023/12/01 08:31:27;;;;;;;36.10;20.90;;;0.70;99.90;;;;;;5062333;28;20436;-83
2023/12/01 08:33:54;;;;;;;35.80;22.00;;;0.70;99.90;;;;;;5063870;28;20551;-82
2023/12/01 08:36:21;;;;;;;45.70;24.93;;;0.80;99.90;;;;;;5062873;28;20451;-83
2023/12/01 08:38:47;;;;;;;34.53;21.13;;;0.80;99.90;;;;;;5057672;28;20474;-82
2023/12/01 08:41:15;;;;;;;38.63;23.67;;;0.80;99.90;;;;;;5058910;28;20510;-82
2023/12/01 08:43:41;;;;;;;38.27;22.07;;;0.80;99.90;;;;;;5063691;28;20614;-82
2023/12/01 08:46:09;;;;;;;36.03;20.57;;;0.80;99.90;;;;;;5062216;28;20520;-82
2023/12/01 08:48:37;;;;;;;34.30;21.83;;;0.80;99.90;;;;;;5061074;28;20463;-82
2023/12/01 08:51:04;;;;;;;39.20;22.67;;;0.80;99.90;;;;;;5063358;28;20528;-82
2023/12/01 08:53:32;;;;;;;34.80;21.53;;;0.90;99.90;;;;;;5063709;28;20984;-82
2023/12/01 08:55:59;;;;;;;42.30;21.93;;;1.00;99.90;;;;;;5064849;28;20455;-82
2023/12/01 08:58:27;;;;;;;35.97;20.90;;;1.00;99.90;;;;;;5060538;28;20524;-82
2023/12/01 09:00:54;;;;;;;47.83;25.80;;;0.90;99.90;;;;;;5065194;28;20459;-82
2023/12/01 09:03:20;;;;;;;41.20;22.30;;;0.90;99.90;;;;;;5056901;28;20513;-82
2023/12/01 09:05:49;;;;;;;44.40;22.60;;;1.00;99.90;;;;;;5064792;28;20507;-82
2023/12/01 09:08:16;;;;;;;34.87;21.70;;;0.90;99.90;;;;;;5058474;28;20460;-82
2023/12/01 09:10:43;;;;;;;37.70;22.30;;;0.80;99.90;;;;;;5062741;28;21236;-82
2023/12/01 09:13:10;;;;;;;40.40;20.77;;;0.90;99.90;;;;;;5064607;28;20452;-82
2023/12/01 09:15:36;;;;;;;33.60;19.77;;;1.00;99.90;;;;;;5060923;28;20467;-82
2023/12/01 09:18:04;;;;;;;30.23;20.77;;;0.90;99.90;;;;;;5059076;28;20498;-83
2023/12/01 09:20:30;;;;;;;32.43;20.50;;;1.00;99.90;;;;;;5055077;28;20543;-82
2023/12/01 09:22:59;;;;;;;38.83;20.77;;;1.00;99.90;;;;;;5059356;28;20486;-81
2023/12/01 09:25:26;;;;;;;39.83;21.20;;;1.00;99.90;;;;;;5056496;28;20459;-83
2023/12/01 09:27:53;;;;;;;34.10;18.50;;;1.00;99.90;;;;;;5052168;28;20482;-82
2023/12/01 09:30:20;;;;;;;32.90;20.27;;;1.00;99.90;;;;;;5055423;28;20456;-82
2023/12/01 09:32:46;;;;;;;32.43;19.63;;;1.00;99.90;;;;;;5063442;28;20448;-82
2023/12/01 09:35:15;;;;;;;36.60;18.30;;;1.00;99.90;;;;;;5056698;28;20464;-82
2023/12/01 09:37:42;;;;;;;33.47;20.40;;;0.90;99.90;;;;;;5061021;28;20475;-82
2023/12/01 09:40:12;;;;;;;35.97;18.30;;;0.90;99.90;;;;;;5060990;28;20939;-81
2023/12/01 09:42:40;;;;;;;36.97;20.60;;;0.90;99.90;;;;;;5062638;28;20512;-82
2023/12/01 09:45:10;;;;;;;27.47;17.30;;;0.80;99.90;;;;;;5061892;28;20580;-82
2023/12/01 09:47:41;;;;;;;28.03;16.60;;;0.90;99.90;;;;;;5058219;28;20666;-83
2023/12/01 09:50:14;;;;;;;31.40;16.80;;;0.90;99.90;;;;;;5063983;28;20448;-82
2023/12/01 09:52:41;;;;;;;31.20;18.57;;;0.90;99.90;;;;;;5051465;28;20471;-81
2023/12/01 09:55:08;;;;;;;31.33;16.60;;;0.90;99.90;;;;;;5057404;28;20552;-82
2023/12/01 09:57:37;;;;;;;31.97;18.00;;;0.90;99.90;;;;;;5057431;28;21276;-82
2023/12/01 10:00:11;;;;;;;34.73;19.10;;;1.00;99.90;;;;;;5062972;28;20451;-82
2023/12/01 10:02:38;;;;;;;25.63;15.83;;;1.00;99.90;;;;;;5058263;28;20549;-81
2023/12/01 10:05:07;;;;;;;30.53;17.70;;;0.90;99.90;;;;;;5057654;28;20439;-81
2023/12/01 10:07:34;;;;;;;32.83;17.50;;;0.90;99.90;;;;;;5052561;28;21094;-81
2023/12/01 10:10:17;;;;;;;32.77;16.23;;;0.90;99.90;;;;;;5064192;28;20448;-81
2023/12/01 10:12:54;;;;;;;29.60;17.13;;;0.90;99.90;;;;;;5055152;28;21160;-81
2023/12/01 10:15:21;;;;;;;24.20;14.77;;;0.90;99.90;;;;;;5055384;28;20558;-81
2023/12/01 10:17:48;;;;;;;28.23;16.63;;;0.90;99.90;;;;;;5057457;28;21052;-81
2023/12/01 10:20:20;;;;;;;21.80;15.73;;;1.00;99.90;;;;;;5061397;28;20462;-82
2023/12/01 10:22:48;;;;;;;24.50;15.60;;;1.10;99.90;;;;;;5060309;28;20734;-82
2023/12/01 10:25:17;;;;;;;31.03;16.60;;;1.00;99.90;;;;;;5059828;28;20491;-81
2023/12/01 10:27:56;;;;;;;63.17;36.07;;;1.10;99.90;;;;;;5062185;28;20483;-81
2023/12/01 10:30:23;;;;;;;77.77;40.33;;;1.20;99.90;;;;;;5059714;28;20556;-81
2023/12/01 10:32:50;;;;;;;43.13;27.83;;;1.20;99.90;;;;;;5060534;28;20497;-81
2023/12/01 10:35:17;;;;;;;73.43;43.33;;;1.30;99.90;;;;;;5054618;28;20468;-81
2023/12/01 10:37:45;;;;;;;44.60;28.53;;;1.30;99.90;;;;;;5057836;28;20513;-81
2023/12/01 10:40:14;;;;;;;67.53;47.20;;;1.30;99.90;;;;;;5060088;28;20464;-82
2023/12/01 10:42:41;;;;;;;49.40;29.47;;;1.30;99.90;;;;;;5058306;28;20460;-82
2023/12/01 10:45:12;;;;;;;29.57;18.73;;;1.30;99.90;;;;;;5061278;28;21079;-82
2023/12/01 10:47:44;;;;;;;27.27;18.10;;;1.40;99.90;;;;;;5051555;28;20526;-82
2023/12/01 10:50:13;;;;;;;32.47;19.27;;;1.30;99.90;;;;;;5058573;28;20473;-81
2023/12/01 10:52:43;;;;;;;37.00;19.60;;;1.20;99.90;;;;;;5061376;28;20452;-81
2023/12/01 10:55:13;;;;;;;34.90;21.60;;;1.30;99.90;;;;;;5058635;28;20542;-81
2023/12/01 10:57:43;;;;;;;32.40;21.83;;;1.20;99.90;;;;;;5058598;28;20546;-81
2023/12/01 11:00:29;;;;;;;37.03;25.50;;;1.30;99.90;;;;;;5059484;28;20979;-81
2023/12/01 11:02:58;;;;;;;29.50;20.27;;;1.20;99.90;;;;;;5062522;28;20443;-82
2023/12/01 11:05:26;;;;;;;34.40;19.43;;;1.30;99.90;;;;;;5060369;28;20458;-81
2023/12/01 11:08:18;;;;;;;61.13;43.70;;;1.40;99.90;;;;;;5062298;28;20522;-81
2023/12/01 11:10:55;;;;;;;34.47;25.57;;;1.50;99.90;;;;;;5066128;28;20455;-81
2023/12/01 11:13:31;;;;;;;59.33;38.20;;;1.50;99.90;;;;;;5054892;28;20517;-82
2023/12/01 11:16:01;;;;;;;50.60;31.00;;;1.50;99.90;;;;;;5065943;28;20529;-81
2023/12/01 11:18:28;;;;;;;65.87;45.20;;;1.50;99.90;;;;;;5060394;28;20528;-81
2023/12/01 11:20:56;;;;;;;63.80;46.13;;;1.50;99.90;;;;;;5065973;28;20460;-81
2023/12/01 11:23:24;;;;;;;37.77;25.70;;;1.50;99.90;;;;;;5055196;28;20448;-81
2023/12/01 11:25:56;;;;;;;26.70;16.60;;;1.50;99.90;;;;;;5062876;28;20605;-82
2023/12/01 11:28:39;;;;;;;32.20;19.67;;;1.50;99.90;;;;;;5062765;28;20552;-81
2023/12/01 11:31:09;;;;;;;26.90;16.40;;;1.40;99.90;;;;;;5065500;28;20543;-81
2023/12/01 11:33:43;;;;;;;28.77;15.73;;;1.50;99.90;;;;;;5063300;28;20503;-82
2023/12/01 11:36:24;;;;;;;31.63;18.90;;;1.50;99.90;;;;;;5064962;28;20451;-82
2023/12/01 11:39:23;;;;;;;25.90;17.13;;;1.30;99.90;;;;;;5064447;28;20467;-81
2023/12/01 11:42:12;;;;;;;28.40;16.90;;;1.30;99.90;;;;;;5057193;28;20815;-82
2023/12/01 11:44:40;;;;;;;32.77;18.90;;;1.40;99.90;;;;;;5055262;28;20536;-82
2023/12/01 11:47:12;;;;;;;29.23;16.07;;;1.30;99.90;;;;;;5062139;28;20484;-82
2023/12/01 11:49:40;;;;;;;27.83;18.00;;;1.30;99.90;;;;;;5060533;28;20460;-82
2023/12/01 11:52:10;;;;;;;27.30;17.57;;;1.20;99.90;;;;;;5058638;28;20501;-81
2023/12/01 11:54:38;;;;;;;27.20;18.33;;;1.20;99.90;;;;;;5064856;28;20530;-82
2023/12/01 11:57:07;;;;;;;29.93;18.50;;;1.20;99.90;;;;;;5059345;28;20472;-82
2023/12/01 11:59:35;;;;;;;26.87;18.77;;;1.30;99.90;;;;;;5064285;28;20538;-82
2023/12/01 12:02:03;;;;;;;31.67;18.27;;;1.20;99.90;;;;;;5061974;28;20932;-82
2023/12/01 12:04:33;;;;;;;31.40;15.73;;;1.30;99.90;;;;;;5063447;28;20539;-83
2023/12/01 12:07:02;;;;;;;27.40;19.63;;;1.40;99.90;;;;;;5062056;28;20563;-83
2023/12/01 12:09:31;;;;;;;24.17;16.77;;;1.30;99.90;;;;;;5063475;28;20460;-83
2023/12/01 12:11:59;;;;;;;27.73;15.90;;;1.30;99.90;;;;;;5064881;28;20528;-83
2023/12/01 12:14:30;;;;;;;25.20;16.83;;;1.30;99.90;;;;;;5065374;28;20512;-83
2023/12/01 12:16:58;;;;;;;27.63;17.97;;;1.20;99.90;;;;;;5055761;28;20455;-83
2023/12/01 12:19:25;;;;;;;28.17;18.00;;;1.10;99.90;;;;;;5061432;28;20459;-83
2023/12/01 12:21:54;;;;;;;30.93;18.17;;;1.10;99.90;;;;;;5064850;28;20460;-83
2023/12/01 12:24:21;;;;;;;34.23;19.27;;;1.20;99.90;;;;;;5065093;28;20872;-83
2023/12/01 12:26:57;;;;;;;30.13;18.63;;;1.10;99.90;;;;;;5054439;28;20483;-83
2023/12/01 12:29:24;;;;;;;28.47;17.37;;;1.10;99.90;;;;;;5061862;28;20530;-83
2023/12/01 12:31:51;;;;;;;24.27;14.83;;;1.00;99.90;;;;;;5063191;28;20851;-83
2023/12/01 12:34:19;;;;;;;24.90;17.47;;;1.00;99.90;;;;;;5063116;28;20460;-83
2023/12/01 12:36:50;;;;;;;36.60;18.73;;;1.10;99.90;;;;;;5059988;28;20538;-83
2023/12/01 12:39:19;;;;;;;25.83;17.03;;;1.20;99.90;;;;;;5063591;28;20456;-83
2023/12/01 12:41:52;;;;;;;30.47;18.87;;;1.20;99.90;;;;;;5060341;28;20451;-83